Terminal Aerodrome Forecast
Issued by NWS

Home | Current Version | Previous Version | Text Only | Print | Product List | Glossary On
Versions: 1 2 3 4 5 6 7 8 9 10 11 12 13 14
000
FTUS43 KDTX 301720
TAFMBS
TAF
KMBS 301720Z 3018/0118 VRB04KT P6SM SCT025 OVC035
      TEMPO 3019/3022 4SM SHRA OVC022
     FM010200 30004KT P6SM OVC007=

USA.gov is the U.S. government's official web portal to all federal, state and local government web resources and services.